sensor_id;sensor_type;location;lat;lon;timestamp;P1;durP1;ratioP1;P2;durP2;ratioP2
78382;SDS011;67668;52.294;4.692;2023-02-14T00:01:34;25.77;;;14.20;;
78382;SDS011;67668;52.294;4.692;2023-02-14T00:06:25;23.17;;;13.15;;
78382;SDS011;67668;52.294;4.692;2023-02-14T00:08:51;25.02;;;13.52;;
78382;SDS011;67668;52.294;4.692;2023-02-14T00:11:18;25.27;;;13.57;;
78382;SDS011;67668;52.294;4.692;2023-02-14T00:16:29;21.27;;;13.02;;
78382;SDS011;67668;52.294;4.692;2023-02-14T00:18:56;26.10;;;13.77;;
78382;SDS011;67668;52.294;4.692;2023-02-14T00:21:28;24.52;;;13.55;;
78382;SDS011;67668;52.294;4.692;2023-02-14T00:23:54;22.58;;;12.90;;
78382;SDS011;67668;52.294;4.692;2023-02-14T00:28:45;20.53;;;12.43;;
78382;SDS011;67668;52.294;4.692;2023-02-14T00:31:10;24.13;;;13.43;;
78382;SDS011;67668;52.294;4.692;2023-02-14T00:36:04;25.10;;;13.77;;
78382;SDS011;67668;52.294;4.692;2023-02-14T00:38:31;23.15;;;13.63;;
78382;SDS011;67668;52.294;4.692;2023-02-14T00:43:21;24.07;;;13.10;;
78382;SDS011;67668;52.294;4.692;2023-02-14T00:48:12;20.03;;;12.10;;
78382;SDS011;67668;52.294;4.692;2023-02-14T00:53:03;23.00;;;12.97;;
78382;SDS011;67668;52.294;4.692;2023-02-14T00:57:53;24.67;;;12.60;;
78382;SDS011;67668;52.294;4.692;2023-02-14T01:02:57;22.38;;;12.02;;
78382;SDS011;67668;52.294;4.692;2023-02-14T01:07:47;23.97;;;13.70;;
78382;SDS011;67668;52.294;4.692;2023-02-14T01:12:38;21.67;;;12.40;;
78382;SDS011;67668;52.294;4.692;2023-02-14T01:17:29;22.33;;;13.48;;
78382;SDS011;67668;52.294;4.692;2023-02-14T01:22:19;22.30;;;13.07;;
78382;SDS011;67668;52.294;4.692;2023-02-14T01:24:45;26.00;;;14.53;;
78382;SDS011;67668;52.294;4.692;2023-02-14T01:27:10;24.38;;;13.68;;
78382;SDS011;67668;52.294;4.692;2023-02-14T01:32:01;21.67;;;12.50;;
78382;SDS011;67668;52.294;4.692;2023-02-14T01:36:51;22.07;;;13.70;;
78382;SDS011;67668;52.294;4.692;2023-02-14T01:41:43;22.88;;;14.00;;
78382;SDS011;67668;52.294;4.692;2023-02-14T01:46:37;25.00;;;14.97;;
78382;SDS011;67668;52.294;4.692;2023-02-14T01:49:50;24.90;;;14.13;;
78382;SDS011;67668;52.294;4.692;2023-02-14T01:52:08;24.33;;;13.20;;
78382;SDS011;67668;52.294;4.692;2023-02-14T01:54:39;23.75;;;13.05;;
78382;SDS011;67668;52.294;4.692;2023-02-14T01:57:10;25.98;;;14.35;;
78382;SDS011;67668;52.294;4.692;2023-02-14T01:59:40;21.75;;;13.38;;
78382;SDS011;67668;52.294;4.692;2023-02-14T02:02:11;22.65;;;12.23;;
78382;SDS011;67668;52.294;4.692;2023-02-14T02:07:05;23.80;;;13.00;;
78382;SDS011;67668;52.294;4.692;2023-02-14T02:09:35;21.85;;;13.13;;
78382;SDS011;67668;52.294;4.692;2023-02-14T02:12:24;22.13;;;12.77;;
78382;SDS011;67668;52.294;4.692;2023-02-14T02:40:15;23.45;;;12.70;;
78382;SDS011;67668;52.294;4.692;2023-02-14T02:43:04;20.58;;;12.50;;
78382;SDS011;67668;52.294;4.692;2023-02-14T02:48:44;22.75;;;12.65;;
78382;SDS011;67668;52.294;4.692;2023-02-14T02:51:23;24.13;;;12.80;;
78382;SDS011;67668;52.294;4.692;2023-02-14T02:54:39;23.40;;;13.50;;
78382;SDS011;67668;52.294;4.692;2023-02-14T02:57:07;26.83;;;13.38;;
78382;SDS011;67668;52.294;4.692;2023-02-14T02:59:40;25.63;;;14.20;;
78382;SDS011;67668;52.294;4.692;2023-02-14T03:02:16;24.95;;;14.25;;
78382;SDS011;67668;52.294;4.692;2023-02-14T03:04:48;23.63;;;14.68;;
78382;SDS011;67668;52.294;4.692;2023-02-14T03:07:18;24.27;;;13.05;;
78382;SDS011;67668;52.294;4.692;2023-02-14T03:15:14;23.60;;;14.02;;
78382;SDS011;67668;52.294;4.692;2023-02-14T03:23:28;20.33;;;12.48;;
78382;SDS011;67668;52.294;4.692;2023-02-14T03:28:56;24.20;;;13.10;;
78382;SDS011;67668;52.294;4.692;2023-02-14T03:36:58;18.55;;;11.50;;
78382;SDS011;67668;52.294;4.692;2023-02-14T03:42:12;19.73;;;11.85;;
78382;SDS011;67668;52.294;4.692;2023-02-14T03:44:44;22.42;;;13.18;;
78382;SDS011;67668;52.294;4.692;2023-02-14T03:47:16;26.70;;;13.05;;
78382;SDS011;67668;52.294;4.692;2023-02-14T03:52:14;22.38;;;13.30;;
78382;SDS011;67668;52.294;4.692;2023-02-14T03:54:41;23.98;;;13.10;;
78382;SDS011;67668;52.294;4.692;2023-02-14T03:57:12;25.15;;;14.27;;
78382;SDS011;67668;52.294;4.692;2023-02-14T03:59:43;25.80;;;14.15;;
78382;SDS011;67668;52.294;4.692;2023-02-14T04:02:10;23.70;;;13.80;;
78382;SDS011;67668;52.294;4.692;2023-02-14T04:04:41;22.83;;;13.20;;
78382;SDS011;67668;52.294;4.692;2023-02-14T04:07:10;26.08;;;14.75;;
78382;SDS011;67668;52.294;4.692;2023-02-14T04:09:37;27.88;;;15.02;;
78382;SDS011;67668;52.294;4.692;2023-02-14T04:14:27;25.17;;;14.30;;
78382;SDS011;67668;52.294;4.692;2023-02-14T04:16:54;29.35;;;14.65;;
78382;SDS011;67668;52.294;4.692;2023-02-14T04:19:38;26.90;;;14.65;;
78382;SDS011;67668;52.294;4.692;2023-02-14T04:24:29;20.80;;;13.53;;
78382;SDS011;67668;52.294;4.692;2023-02-14T04:26:54;25.57;;;13.80;;
78382;SDS011;67668;52.294;4.692;2023-02-14T04:29:39;25.88;;;14.98;;
78382;SDS011;67668;52.294;4.692;2023-02-14T04:32:06;24.35;;;13.73;;
78382;SDS011;67668;52.294;4.692;2023-02-14T04:34:34;23.00;;;13.00;;
78382;SDS011;67668;52.294;4.692;2023-02-14T04:39:24;25.03;;;13.97;;
78382;SDS011;67668;52.294;4.692;2023-02-14T04:44:15;20.90;;;12.27;;
78382;SDS011;67668;52.294;4.692;2023-02-14T04:49:06;21.77;;;13.23;;
78382;SDS011;67668;52.294;4.692;2023-02-14T04:51:31;23.63;;;13.47;;
78382;SDS011;67668;52.294;4.692;2023-02-14T04:53:56;20.17;;;11.63;;
78382;SDS011;67668;52.294;4.692;2023-02-14T04:58:47;22.60;;;12.77;;
78382;SDS011;67668;52.294;4.692;2023-02-14T05:01:12;21.47;;;13.20;;
78382;SDS011;67668;52.294;4.692;2023-02-14T05:06:03;22.47;;;13.23;;
78382;SDS011;67668;52.294;4.692;2023-02-14T05:08:28;20.52;;;12.85;;
78382;SDS011;67668;52.294;4.692;2023-02-14T05:13:19;22.47;;;12.80;;
78382;SDS011;67668;52.294;4.692;2023-02-14T05:15:44;25.07;;;13.33;;
78382;SDS011;67668;52.294;4.692;2023-02-14T05:20:35;26.60;;;11.90;;
78382;SDS011;67668;52.294;4.692;2023-02-14T05:25:28;20.98;;;11.68;;
78382;SDS011;67668;52.294;4.692;2023-02-14T05:27:54;20.65;;;11.73;;
78382;SDS011;67668;52.294;4.692;2023-02-14T05:30:19;23.05;;;12.32;;
78382;SDS011;67668;52.294;4.692;2023-02-14T05:32:50;20.77;;;12.25;;
78382;SDS011;67668;52.294;4.692;2023-02-14T05:35:16;22.20;;;12.32;;
78382;SDS011;67668;52.294;4.692;2023-02-14T05:37:42;22.50;;;13.35;;
78382;SDS011;67668;52.294;4.692;2023-02-14T05:40:08;20.50;;;12.20;;
78382;SDS011;67668;52.294;4.692;2023-02-14T05:44:59;20.53;;;13.20;;
78382;SDS011;67668;52.294;4.692;2023-02-14T05:47:24;24.50;;;11.77;;
78382;SDS011;67668;52.294;4.692;2023-02-14T05:49:49;23.35;;;11.77;;
78382;SDS011;67668;52.294;4.692;2023-02-14T05:54:40;18.87;;;11.17;;
78382;SDS011;67668;52.294;4.692;2023-02-14T05:59:31;19.33;;;11.10;;
78382;SDS011;67668;52.294;4.692;2023-02-14T06:01:56;21.13;;;11.43;;
78382;SDS011;67668;52.294;4.692;2023-02-14T06:04:22;21.55;;;12.13;;
78382;SDS011;67668;52.294;4.692;2023-02-14T06:06:47;20.58;;;12.18;;
78382;SDS011;67668;52.294;4.692;2023-02-14T06:11:38;19.88;;;10.68;;
78382;SDS011;67668;52.294;4.692;2023-02-14T06:14:04;21.90;;;12.05;;
78382;SDS011;67668;52.294;4.692;2023-02-14T06:18:55;20.57;;;11.10;;
78382;SDS011;67668;52.294;4.692;2023-02-14T06:23:45;20.40;;;11.07;;
78382;SDS011;67668;52.294;4.692;2023-02-14T06:26:11;20.10;;;11.17;;
78382;SDS011;67668;52.294;4.692;2023-02-14T06:31:01;18.00;;;10.33;;
78382;SDS011;67668;52.294;4.692;2023-02-14T06:33:27;17.10;;;10.23;;
78382;SDS011;67668;52.294;4.692;2023-02-14T06:38:18;19.92;;;11.43;;
78382;SDS011;67668;52.294;4.692;2023-02-14T06:40:43;19.05;;;10.70;;
78382;SDS011;67668;52.294;4.692;2023-02-14T06:45:34;17.30;;;10.23;;
78382;SDS011;67668;52.294;4.692;2023-02-14T06:48:00;18.88;;;11.32;;
78382;SDS011;67668;52.294;4.692;2023-02-14T06:50:25;18.13;;;11.38;;
78382;SDS011;67668;52.294;4.692;2023-02-14T06:52:51;16.15;;;9.82;;
78382;SDS011;67668;52.294;4.692;2023-02-14T06:55:16;14.98;;;9.15;;
78382;SDS011;67668;52.294;4.692;2023-02-14T06:57:42;18.33;;;10.98;;
78382;SDS011;67668;52.294;4.692;2023-02-14T07:02:34;16.35;;;9.82;;
78382;SDS011;67668;52.294;4.692;2023-02-14T07:05:00;17.05;;;10.38;;
78382;SDS011;67668;52.294;4.692;2023-02-14T07:09:50;17.13;;;10.23;;
78382;SDS011;67668;52.294;4.692;2023-02-14T07:12:16;18.63;;;10.73;;
78382;SDS011;67668;52.294;4.692;2023-02-14T07:14:41;17.63;;;10.17;;
78382;SDS011;67668;52.294;4.692;2023-02-14T07:17:07;14.13;;;9.93;;
78382;SDS011;67668;52.294;4.692;2023-02-14T07:19:32;16.92;;;10.10;;
78382;SDS011;67668;52.294;4.692;2023-02-14T07:21:57;17.58;;;10.23;;
78382;SDS011;67668;52.294;4.692;2023-02-14T07:24:23;16.27;;;9.88;;
78382;SDS011;67668;52.294;4.692;2023-02-14T07:26:48;15.85;;;10.20;;
78382;SDS011;67668;52.294;4.692;2023-02-14T07:31:39;15.27;;;8.73;;
78382;SDS011;67668;52.294;4.692;2023-02-14T07:36:30;14.30;;;9.10;;
78382;SDS011;67668;52.294;4.692;2023-02-14T07:38:55;15.63;;;9.63;;
78382;SDS011;67668;52.294;4.692;2023-02-14T07:43:48;13.65;;;9.20;;
78382;SDS011;67668;52.294;4.692;2023-02-14T07:46:13;16.17;;;10.07;;
78382;SDS011;67668;52.294;4.692;2023-02-14T07:48:39;14.80;;;10.00;;
78382;SDS011;67668;52.294;4.692;2023-02-14T07:53:29;16.67;;;10.10;;
78382;SDS011;67668;52.294;4.692;2023-02-14T07:58:20;16.70;;;9.85;;
78382;SDS011;67668;52.294;4.692;2023-02-14T08:00:46;16.58;;;10.02;;
78382;SDS011;67668;52.294;4.692;2023-02-14T08:03:11;21.57;;;10.30;;
78382;SDS011;67668;52.294;4.692;2023-02-14T08:05:37;15.73;;;10.25;;
78382;SDS011;67668;52.294;4.692;2023-02-14T08:08:03;16.83;;;10.77;;
78382;SDS011;67668;52.294;4.692;2023-02-14T08:10:28;16.92;;;10.73;;
78382;SDS011;67668;52.294;4.692;2023-02-14T08:15:29;15.68;;;10.13;;
78382;SDS011;67668;52.294;4.692;2023-02-14T08:18:16;15.57;;;10.50;;
78382;SDS011;67668;52.294;4.692;2023-02-14T08:20:42;18.58;;;11.13;;
78382;SDS011;67668;52.294;4.692;2023-02-14T08:23:10;17.48;;;10.70;;
78382;SDS011;67668;52.294;4.692;2023-02-14T08:25:35;19.17;;;12.30;;
78382;SDS011;67668;52.294;4.692;2023-02-14T08:28:01;19.88;;;12.32;;
78382;SDS011;67668;52.294;4.692;2023-02-14T08:30:28;21.88;;;12.48;;
78382;SDS011;67668;52.294;4.692;2023-02-14T08:32:53;21.20;;;12.75;;
78382;SDS011;67668;52.294;4.692;2023-02-14T08:35:19;23.83;;;14.15;;
78382;SDS011;67668;52.294;4.692;2023-02-14T08:37:44;20.52;;;12.65;;
78382;SDS011;67668;52.294;4.692;2023-02-14T08:42:35;20.45;;;13.23;;
78382;SDS011;67668;52.294;4.692;2023-02-14T08:45:01;27.00;;;14.90;;
78382;SDS011;67668;52.294;4.692;2023-02-14T08:49:51;25.10;;;12.90;;
78382;SDS011;67668;52.294;4.692;2023-02-14T08:52:17;22.50;;;13.50;;
78382;SDS011;67668;52.294;4.692;2023-02-14T08:54:42;23.73;;;13.25;;
78382;SDS011;67668;52.294;4.692;2023-02-14T08:57:07;22.57;;;14.20;;
78382;SDS011;67668;52.294;4.692;2023-02-14T08:59:33;26.08;;;15.65;;
78382;SDS011;67668;52.294;4.692;2023-02-14T09:01:58;29.15;;;15.23;;
78382;SDS011;67668;52.294;4.692;2023-02-14T09:04:24;29.17;;;15.48;;
78382;SDS011;67668;52.294;4.692;2023-02-14T09:06:49;21.77;;;14.27;;
78382;SDS011;67668;52.294;4.692;2023-02-14T09:09:14;22.98;;;14.82;;
78382;SDS011;67668;52.294;4.692;2023-02-14T09:11:41;27.35;;;15.43;;
78382;SDS011;67668;52.294;4.692;2023-02-14T09:14:07;26.80;;;16.58;;
78382;SDS011;67668;52.294;4.692;2023-02-14T09:16:32;22.55;;;14.02;;
78382;SDS011;67668;52.294;4.692;2023-02-14T09:18:58;25.27;;;16.13;;
78382;SDS011;67668;52.294;4.692;2023-02-14T09:21:24;28.92;;;15.40;;
78382;SDS011;67668;52.294;4.692;2023-02-14T09:23:51;30.00;;;17.48;;
78382;SDS011;67668;52.294;4.692;2023-02-14T09:26:17;26.45;;;16.95;;
78382;SDS011;67668;52.294;4.692;2023-02-14T09:31:09;29.87;;;16.53;;
78382;SDS011;67668;52.294;4.692;2023-02-14T09:33:37;28.48;;;15.95;;
78382;SDS011;67668;52.294;4.692;2023-02-14T09:36:02;30.38;;;18.08;;
78382;SDS011;67668;52.294;4.692;2023-02-14T09:38:46;31.98;;;18.83;;
78382;SDS011;67668;52.294;4.692;2023-02-14T09:44:29;32.15;;;19.27;;
78382;SDS011;67668;52.294;4.692;2023-02-14T09:47:00;30.20;;;17.83;;
78382;SDS011;67668;52.294;4.692;2023-02-14T09:49:31;35.97;;;20.33;;
78382;SDS011;67668;52.294;4.692;2023-02-14T09:52:00;32.78;;;19.45;;
78382;SDS011;67668;52.294;4.692;2023-02-14T09:54:28;34.83;;;20.63;;
78382;SDS011;67668;52.294;4.692;2023-02-14T10:07:45;41.25;;;21.52;;
78382;SDS011;67668;52.294;4.692;2023-02-14T10:10:39;35.33;;;19.75;;
78382;SDS011;67668;52.294;4.692;2023-02-14T10:15:38;33.83;;;21.67;;
78382;SDS011;67668;52.294;4.692;2023-02-14T10:18:21;41.67;;;22.55;;
78382;SDS011;67668;52.294;4.692;2023-02-14T10:20:52;40.53;;;22.33;;
78382;SDS011;67668;52.294;4.692;2023-02-14T10:26:08;41.20;;;23.60;;
78382;SDS011;67668;52.294;4.692;2023-02-14T10:28:38;40.72;;;24.17;;
78382;SDS011;67668;52.294;4.692;2023-02-14T10:37:05;41.20;;;23.98;;
78382;SDS011;67668;52.294;4.692;2023-02-14T10:45:15;41.67;;;24.70;;
78382;SDS011;67668;52.294;4.692;2023-02-14T10:58:18;38.35;;;22.20;;
78382;SDS011;67668;52.294;4.692;2023-02-14T11:03:21;43.10;;;24.15;;
78382;SDS011;67668;52.294;4.692;2023-02-14T11:05:48;39.17;;;22.48;;
78382;SDS011;67668;52.294;4.692;2023-02-14T11:10:50;42.03;;;24.20;;
78382;SDS011;67668;52.294;4.692;2023-02-14T11:15:51;40.13;;;22.50;;
78382;SDS011;67668;52.294;4.692;2023-02-14T11:18:21;39.00;;;23.42;;
78382;SDS011;67668;52.294;4.692;2023-02-14T11:23:48;36.83;;;22.60;;
78382;SDS011;67668;52.294;4.692;2023-02-14T11:26:24;37.28;;;23.58;;
78382;SDS011;67668;52.294;4.692;2023-02-14T11:31:31;42.80;;;23.42;;
78382;SDS011;67668;52.294;4.692;2023-02-14T11:33:58;40.80;;;25.02;;
78382;SDS011;67668;52.294;4.692;2023-02-14T11:36:25;43.20;;;25.45;;
78382;SDS011;67668;52.294;4.692;2023-02-14T11:41:58;37.35;;;23.33;;
78382;SDS011;67668;52.294;4.692;2023-02-14T11:44:26;38.67;;;24.65;;
78382;SDS011;67668;52.294;4.692;2023-02-14T11:46:54;42.08;;;24.33;;
78382;SDS011;67668;52.294;4.692;2023-02-14T11:49:28;39.90;;;22.02;;
78382;SDS011;67668;52.294;4.692;2023-02-14T11:51:57;46.05;;;26.90;;
78382;SDS011;67668;52.294;4.692;2023-02-14T11:57:00;42.42;;;24.48;;
78382;SDS011;67668;52.294;4.692;2023-02-14T11:59:35;39.75;;;24.58;;
78382;SDS011;67668;52.294;4.692;2023-02-14T12:05:00;38.42;;;24.10;;
78382;SDS011;67668;52.294;4.692;2023-02-14T12:07:32;41.10;;;24.67;;
78382;SDS011;67668;52.294;4.692;2023-02-14T12:13:02;42.58;;;25.25;;
78382;SDS011;67668;52.294;4.692;2023-02-14T12:15:29;41.30;;;24.52;;
78382;SDS011;67668;52.294;4.692;2023-02-14T12:20:43;38.95;;;24.33;;
78382;SDS011;67668;52.294;4.692;2023-02-14T12:23:40;37.17;;;23.25;;
78382;SDS011;67668;52.294;4.692;2023-02-14T12:29:14;35.55;;;23.58;;
78382;SDS011;67668;52.294;4.692;2023-02-14T12:31:42;37.83;;;23.25;;
78382;SDS011;67668;52.294;4.692;2023-02-14T12:34:10;36.28;;;22.83;;
78382;SDS011;67668;52.294;4.692;2023-02-14T12:39:21;39.35;;;23.98;;
78382;SDS011;67668;52.294;4.692;2023-02-14T12:55:53;36.22;;;23.25;;
78382;SDS011;67668;52.294;4.692;2023-02-14T13:01:20;38.50;;;24.77;;
78382;SDS011;67668;52.294;4.692;2023-02-14T13:06:47;39.50;;;24.45;;
78382;SDS011;67668;52.294;4.692;2023-02-14T13:09:25;38.05;;;23.70;;
78382;SDS011;67668;52.294;4.692;2023-02-14T13:22:49;34.47;;;22.83;;
78382;SDS011;67668;52.294;4.692;2023-02-14T13:25:26;37.03;;;23.33;;
78382;SDS011;67668;52.294;4.692;2023-02-14T13:27:58;37.63;;;23.02;;
78382;SDS011;67668;52.294;4.692;2023-02-14T13:32:56;38.35;;;23.75;;
78382;SDS011;67668;52.294;4.692;2023-02-14T13:35:26;35.03;;;23.38;;
78382;SDS011;67668;52.294;4.692;2023-02-14T13:37:56;35.05;;;22.63;;
78382;SDS011;67668;52.294;4.692;2023-02-14T13:40:26;34.88;;;23.88;;
78382;SDS011;67668;52.294;4.692;2023-02-14T13:42:54;40.10;;;24.48;;
78382;SDS011;67668;52.294;4.692;2023-02-14T13:50:51;37.45;;;23.58;;
78382;SDS011;67668;52.294;4.692;2023-02-14T13:53:44;40.70;;;25.13;;
78382;SDS011;67668;52.294;4.692;2023-02-14T14:01:49;40.75;;;25.10;;
78382;SDS011;67668;52.294;4.692;2023-02-14T14:12:23;38.95;;;25.23;;
78382;SDS011;67668;52.294;4.692;2023-02-14T14:15:25;36.30;;;23.80;;
78382;SDS011;67668;52.294;4.692;2023-02-14T14:17:45;36.58;;;24.40;;
78382;SDS011;67668;52.294;4.692;2023-02-14T14:20:38;38.42;;;25.27;;
78382;SDS011;67668;52.294;4.692;2023-02-14T14:25:56;38.70;;;26.55;;
78382;SDS011;67668;52.294;4.692;2023-02-14T14:28:24;42.28;;;25.33;;
78382;SDS011;67668;52.294;4.692;2023-02-14T14:30:52;37.25;;;24.52;;
78382;SDS011;67668;52.294;4.692;2023-02-14T14:35:57;38.30;;;25.00;;
78382;SDS011;67668;52.294;4.692;2023-02-14T14:38:26;35.95;;;24.00;;
78382;SDS011;67668;52.294;4.692;2023-02-14T14:40:53;38.83;;;23.73;;
78382;SDS011;67668;52.294;4.692;2023-02-14T14:43:24;35.65;;;24.10;;
78382;SDS011;67668;52.294;4.692;2023-02-14T14:45:56;31.98;;;21.45;;
78382;SDS011;67668;52.294;4.692;2023-02-14T14:48:26;38.47;;;25.10;;
78382;SDS011;67668;52.294;4.692;2023-02-14T14:51:02;36.03;;;23.40;;
78382;SDS011;67668;52.294;4.692;2023-02-14T14:53:39;39.75;;;24.38;;
78382;SDS011;67668;52.294;4.692;2023-02-14T14:58:45;33.25;;;21.35;;
78382;SDS011;67668;52.294;4.692;2023-02-14T15:01:11;40.67;;;25.10;;
78382;SDS011;67668;52.294;4.692;2023-02-14T15:03:51;37.28;;;23.98;;
78382;SDS011;67668;52.294;4.692;2023-02-14T15:06:18;33.53;;;22.07;;
78382;SDS011;67668;52.294;4.692;2023-02-14T15:08:45;36.30;;;23.00;;
78382;SDS011;67668;52.294;4.692;2023-02-14T15:11:23;33.15;;;20.85;;
78382;SDS011;67668;52.294;4.692;2023-02-14T15:14:17;36.13;;;23.60;;
78382;SDS011;67668;52.294;4.692;2023-02-14T15:16:52;34.13;;;22.33;;
78382;SDS011;67668;52.294;4.692;2023-02-14T15:19:29;36.47;;;23.02;;
78382;SDS011;67668;52.294;4.692;2023-02-14T15:22:02;35.67;;;22.67;;
78382;SDS011;67668;52.294;4.692;2023-02-14T15:24:29;37.47;;;23.58;;
78382;SDS011;67668;52.294;4.692;2023-02-14T15:26:57;34.25;;;22.25;;
78382;SDS011;67668;52.294;4.692;2023-02-14T15:29:25;34.40;;;20.98;;
78382;SDS011;67668;52.294;4.692;2023-02-14T15:31:52;31.65;;;20.25;;
78382;SDS011;67668;52.294;4.692;2023-02-14T15:34:22;34.88;;;22.17;;
78382;SDS011;67668;52.294;4.692;2023-02-14T15:36:50;32.80;;;21.80;;
78382;SDS011;67668;52.294;4.692;2023-02-14T15:39:21;38.47;;;23.90;;
78382;SDS011;67668;52.294;4.692;2023-02-14T15:41:53;34.75;;;22.90;;
78382;SDS011;67668;52.294;4.692;2023-02-14T15:44:23;34.28;;;23.13;;
78382;SDS011;67668;52.294;4.692;2023-02-14T15:46:54;35.15;;;22.75;;
78382;SDS011;67668;52.294;4.692;2023-02-14T15:49:23;33.45;;;22.15;;
78382;SDS011;67668;52.294;4.692;2023-02-14T15:51:55;36.03;;;24.45;;
78382;SDS011;67668;52.294;4.692;2023-02-14T15:54:26;35.80;;;23.27;;
78382;SDS011;67668;52.294;4.692;2023-02-14T15:57:00;46.47;;;27.45;;
78382;SDS011;67668;52.294;4.692;2023-02-14T15:59:28;35.72;;;24.67;;
78382;SDS011;67668;52.294;4.692;2023-02-14T16:04:26;39.50;;;24.87;;
78382;SDS011;67668;52.294;4.692;2023-02-14T16:07:36;37.67;;;24.17;;
78382;SDS011;67668;52.294;4.692;2023-02-14T16:09:48;39.17;;;24.45;;
78382;SDS011;67668;52.294;4.692;2023-02-14T16:12:24;36.00;;;24.58;;
78382;SDS011;67668;52.294;4.692;2023-02-14T16:15:02;40.00;;;25.45;;
78382;SDS011;67668;52.294;4.692;2023-02-14T16:17:38;36.28;;;24.08;;
78382;SDS011;67668;52.294;4.692;2023-02-14T16:22:47;42.60;;;26.85;;
78382;SDS011;67668;52.294;4.692;2023-02-14T16:25:12;42.80;;;27.25;;
78382;SDS011;67668;52.294;4.692;2023-02-14T16:27:38;43.25;;;25.08;;
78382;SDS011;67668;52.294;4.692;2023-02-14T16:30:04;43.58;;;27.23;;
78382;SDS011;67668;52.294;4.692;2023-02-14T16:32:30;40.92;;;26.23;;
78382;SDS011;67668;52.294;4.692;2023-02-14T16:34:55;41.63;;;25.90;;
78382;SDS011;67668;52.294;4.692;2023-02-14T16:37:25;41.70;;;25.35;;
78382;SDS011;67668;52.294;4.692;2023-02-14T16:39:55;38.95;;;25.25;;
78382;SDS011;67668;52.294;4.692;2023-02-14T16:42:22;40.05;;;26.45;;
78382;SDS011;67668;52.294;4.692;2023-02-14T16:44:48;40.40;;;24.77;;
78382;SDS011;67668;52.294;4.692;2023-02-14T16:47:15;41.47;;;25.67;;
78382;SDS011;67668;52.294;4.692;2023-02-14T16:49:42;41.15;;;26.25;;
78382;SDS011;67668;52.294;4.692;2023-02-14T16:52:15;40.70;;;25.42;;
78382;SDS011;67668;52.294;4.692;2023-02-14T16:54:42;39.10;;;24.02;;
78382;SDS011;67668;52.294;4.692;2023-02-14T16:57:08;39.83;;;25.27;;
78382;SDS011;67668;52.294;4.692;2023-02-14T16:59:42;43.10;;;26.77;;
78382;SDS011;67668;52.294;4.692;2023-02-14T17:02:07;39.47;;;25.23;;
78382;SDS011;67668;52.294;4.692;2023-02-14T17:04:32;39.78;;;25.98;;
78382;SDS011;67668;52.294;4.692;2023-02-14T17:06:58;40.63;;;25.65;;
78382;SDS011;67668;52.294;4.692;2023-02-14T17:09:30;39.20;;;25.30;;
78382;SDS011;67668;52.294;4.692;2023-02-14T17:12:03;39.38;;;25.05;;
78382;SDS011;67668;52.294;4.692;2023-02-14T17:14:33;41.22;;;25.73;;
78382;SDS011;67668;52.294;4.692;2023-02-14T17:17:01;41.22;;;24.52;;
78382;SDS011;67668;52.294;4.692;2023-02-14T17:19:27;42.08;;;25.88;;
78382;SDS011;67668;52.294;4.692;2023-02-14T17:21:52;41.53;;;23.90;;
78382;SDS011;67668;52.294;4.692;2023-02-14T17:24:21;41.78;;;26.02;;
78382;SDS011;67668;52.294;4.692;2023-02-14T17:26:46;44.63;;;26.07;;
78382;SDS011;67668;52.294;4.692;2023-02-14T17:29:12;43.35;;;25.20;;
78382;SDS011;67668;52.294;4.692;2023-02-14T17:31:37;42.78;;;26.20;;
78382;SDS011;67668;52.294;4.692;2023-02-14T17:34:03;40.92;;;25.13;;
78382;SDS011;67668;52.294;4.692;2023-02-14T17:36:28;38.47;;;23.70;;
78382;SDS011;67668;52.294;4.692;2023-02-14T17:38:54;40.67;;;24.70;;
78382;SDS011;67668;52.294;4.692;2023-02-14T17:41:24;40.87;;;26.23;;
78382;SDS011;67668;52.294;4.692;2023-02-14T17:43:51;39.13;;;25.30;;
78382;SDS011;67668;52.294;4.692;2023-02-14T17:46:19;41.67;;;24.95;;
78382;SDS011;67668;52.294;4.692;2023-02-14T17:48:45;39.42;;;24.58;;
78382;SDS011;67668;52.294;4.692;2023-02-14T17:51:13;40.05;;;24.88;;
78382;SDS011;67668;52.294;4.692;2023-02-14T17:53:39;40.95;;;24.65;;
78382;SDS011;67668;52.294;4.692;2023-02-14T17:56:10;38.47;;;23.48;;
78382;SDS011;67668;52.294;4.692;2023-02-14T17:58:37;41.75;;;25.42;;
78382;SDS011;67668;52.294;4.692;2023-02-14T18:01:03;39.47;;;24.92;;
78382;SDS011;67668;52.294;4.692;2023-02-14T18:03:30;36.75;;;24.23;;
78382;SDS011;67668;52.294;4.692;2023-02-14T18:05:56;42.28;;;25.48;;
78382;SDS011;67668;52.294;4.692;2023-02-14T18:08:25;39.45;;;24.95;;
78382;SDS011;67668;52.294;4.692;2023-02-14T18:10:51;42.58;;;26.33;;
78382;SDS011;67668;52.294;4.692;2023-02-14T18:13:17;40.37;;;24.53;;
78382;SDS011;67668;52.294;4.692;2023-02-14T18:15:42;43.08;;;26.75;;
78382;SDS011;67668;52.294;4.692;2023-02-14T18:18:09;43.72;;;25.85;;
78382;SDS011;67668;52.294;4.692;2023-02-14T18:20:35;45.08;;;26.25;;
78382;SDS011;67668;52.294;4.692;2023-02-14T18:23:00;41.22;;;25.98;;
78382;SDS011;67668;52.294;4.692;2023-02-14T18:25:31;42.05;;;25.20;;
78382;SDS011;67668;52.294;4.692;2023-02-14T18:27:57;43.35;;;24.33;;
78382;SDS011;67668;52.294;4.692;2023-02-14T18:30:22;45.25;;;25.73;;
78382;SDS011;67668;52.294;4.692;2023-02-14T18:32:47;40.97;;;24.13;;
78382;SDS011;67668;52.294;4.692;2023-02-14T18:35:13;39.17;;;25.25;;
78382;SDS011;67668;52.294;4.692;2023-02-14T18:37:38;42.38;;;25.00;;
78382;SDS011;67668;52.294;4.692;2023-02-14T18:40:05;39.40;;;24.50;;
78382;SDS011;67668;52.294;4.692;2023-02-14T18:42:32;42.42;;;25.85;;
78382;SDS011;67668;52.294;4.692;2023-02-14T18:44:58;42.92;;;23.90;;
78382;SDS011;67668;52.294;4.692;2023-02-14T18:49:48;38.63;;;23.97;;
78382;SDS011;67668;52.294;4.692;2023-02-14T18:52:14;38.10;;;23.60;;
78382;SDS011;67668;52.294;4.692;2023-02-14T18:54:39;42.85;;;25.58;;
78382;SDS011;67668;52.294;4.692;2023-02-14T18:59:30;43.30;;;24.10;;
78382;SDS011;67668;52.294;4.692;2023-02-14T19:04:21;40.95;;;23.77;;
78382;SDS011;67668;52.294;4.692;2023-02-14T19:09:14;43.42;;;24.88;;
78382;SDS011;67668;52.294;4.692;2023-02-14T19:11:41;40.33;;;24.02;;
78382;SDS011;67668;52.294;4.692;2023-02-14T19:14:07;43.63;;;25.20;;
78382;SDS011;67668;52.294;4.692;2023-02-14T19:16:40;41.67;;;24.67;;
78382;SDS011;67668;52.294;4.692;2023-02-14T19:19:08;41.67;;;23.77;;
78382;SDS011;67668;52.294;4.692;2023-02-14T19:21:34;44.00;;;25.75;;
78382;SDS011;67668;52.294;4.692;2023-02-14T19:24:00;44.08;;;26.10;;
78382;SDS011;67668;52.294;4.692;2023-02-14T19:26:30;42.70;;;25.55;;
78382;SDS011;67668;52.294;4.692;2023-02-14T19:28:59;47.90;;;25.77;;
78382;SDS011;67668;52.294;4.692;2023-02-14T19:31:27;42.70;;;25.48;;
78382;SDS011;67668;52.294;4.692;2023-02-14T19:33:52;45.05;;;26.35;;
78382;SDS011;67668;52.294;4.692;2023-02-14T19:38:45;43.55;;;25.08;;
78382;SDS011;67668;52.294;4.692;2023-02-14T19:41:20;44.38;;;27.33;;
78382;SDS011;67668;52.294;4.692;2023-02-14T19:43:50;46.38;;;26.33;;
78382;SDS011;67668;52.294;4.692;2023-02-14T19:48:42;43.03;;;24.77;;
78382;SDS011;67668;52.294;4.692;2023-02-14T19:53:51;49.20;;;27.67;;
78382;SDS011;67668;52.294;4.692;2023-02-14T19:56:18;46.13;;;26.90;;
78382;SDS011;67668;52.294;4.692;2023-02-14T19:58:45;43.13;;;26.20;;